sensor_id;sensor_type;location;lat;lon;timestamp;pressure;altitude;pressure_sealevel;temperature;humidity
77333;BME280;66408;51.326;12.070;2023-05-14T00:01:00;101080.69;;;14.30;64.87
77333;BME280;66408;51.326;12.070;2023-05-14T00:03:26;101075.31;;;14.25;65.03
77333;BME280;66408;51.326;12.070;2023-05-14T00:05:53;101072.88;;;14.24;64.92
77333;BME280;66408;51.326;12.070;2023-05-14T00:08:19;101067.50;;;14.32;64.99
77333;BME280;66408;51.326;12.070;2023-05-14T00:10:46;101061.81;;;14.43;64.50
77333;BME280;66408;51.326;12.070;2023-05-14T00:13:12;101060.38;;;14.45;64.76
77333;BME280;66408;51.326;12.070;2023-05-14T00:15:39;101060.38;;;14.45;64.78
77333;BME280;66408;51.326;12.070;2023-05-14T00:18:06;101061.66;;;14.48;64.91
77333;BME280;66408;51.326;12.070;2023-05-14T00:20:33;101061.75;;;14.56;64.83
77333;BME280;66408;51.326;12.070;2023-05-14T00:22:59;101058.00;;;14.52;64.73
77333;BME280;66408;51.326;12.070;2023-05-14T00:25:26;101058.31;;;14.51;64.98
77333;BME280;66408;51.326;12.070;2023-05-14T00:27:53;101057.69;;;14.54;64.86
77333;BME280;66408;51.326;12.070;2023-05-14T00:30:19;101056.44;;;14.60;64.81
77333;BME280;66408;51.326;12.070;2023-05-14T00:32:46;101049.22;;;14.64;64.55
77333;BME280;66408;51.326;12.070;2023-05-14T00:35:13;101052.16;;;14.67;64.28
77333;BME280;66408;51.326;12.070;2023-05-14T00:37:39;101047.91;;;14.61;64.88
77333;BME280;66408;51.326;12.070;2023-05-14T00:40:06;101051.28;;;14.58;65.32
77333;BME280;66408;51.326;12.070;2023-05-14T00:42:33;101048.38;;;14.55;65.49
77333;BME280;66408;51.326;12.070;2023-05-14T00:45:00;101047.25;;;14.56;65.60
77333;BME280;66408;51.326;12.070;2023-05-14T00:47:27;101049.47;;;14.54;65.73
77333;BME280;66408;51.326;12.070;2023-05-14T00:49:53;101049.19;;;14.55;65.52
77333;BME280;66408;51.326;12.070;2023-05-14T00:52:20;101056.06;;;14.53;65.26
77333;BME280;66408;51.326;12.070;2023-05-14T00:54:47;101050.59;;;14.53;65.29
77333;BME280;66408;51.326;12.070;2023-05-14T00:57:14;101042.69;;;14.51;65.33
77333;BME280;66408;51.326;12.070;2023-05-14T00:59:41;101049.78;;;14.52;65.12
77333;BME280;66408;51.326;12.070;2023-05-14T01:02:08;101051.09;;;14.55;65.46
77333;BME280;66408;51.326;12.070;2023-05-14T01:04:34;101048.66;;;14.53;64.78
77333;BME280;66408;51.326;12.070;2023-05-14T01:07:14;101050.59;;;14.53;65.06
77333;BME280;66408;51.326;12.070;2023-05-14T01:10:07;101050.78;;;14.56;65.21
77333;BME280;66408;51.326;12.070;2023-05-14T01:12:41;101043.69;;;14.55;65.33
77333;BME280;66408;51.326;12.070;2023-05-14T01:17:42;101040.47;;;14.53;65.16
77333;BME280;66408;51.326;12.070;2023-05-14T01:20:13;101050.41;;;14.49;65.66
77333;BME280;66408;51.326;12.070;2023-05-14T01:22:40;101041.88;;;14.51;64.90
77333;BME280;66408;51.326;12.070;2023-05-14T01:25:08;101047.00;;;14.44;65.40
77333;BME280;66408;51.326;12.070;2023-05-14T01:27:49;101054.41;;;14.43;65.65
77333;BME280;66408;51.326;12.070;2023-05-14T01:30:27;101048.22;;;14.37;65.58
77333;BME280;66408;51.326;12.070;2023-05-14T01:32:58;101047.22;;;14.33;65.88
77333;BME280;66408;51.326;12.070;2023-05-14T01:35:27;101039.94;;;14.29;66.06
77333;BME280;66408;51.326;12.070;2023-05-14T01:37:55;101042.47;;;14.25;66.30
77333;BME280;66408;51.326;12.070;2023-05-14T01:40:23;101038.28;;;14.19;66.64
77333;BME280;66408;51.326;12.070;2023-05-14T01:42:51;101034.72;;;14.19;66.17
77333;BME280;66408;51.326;12.070;2023-05-14T01:45:24;101033.41;;;14.16;66.63
77333;BME280;66408;51.326;12.070;2023-05-14T01:47:51;101029.50;;;14.09;66.68
77333;BME280;66408;51.326;12.070;2023-05-14T01:50:18;101031.59;;;14.12;66.70
77333;BME280;66408;51.326;12.070;2023-05-14T01:52:45;101025.97;;;14.08;66.75
77333;BME280;66408;51.326;12.070;2023-05-14T01:55:13;101034.78;;;14.05;67.02
77333;BME280;66408;51.326;12.070;2023-05-14T01:57:41;101039.44;;;14.05;67.34
77333;BME280;66408;51.326;12.070;2023-05-14T02:00:07;101032.16;;;14.00;67.24
77333;BME280;66408;51.326;12.070;2023-05-14T02:02:34;101029.72;;;13.98;67.02
77333;BME280;66408;51.326;12.070;2023-05-14T02:05:01;101030.84;;;13.97;67.46
77333;BME280;66408;51.326;12.070;2023-05-14T02:07:31;101035.19;;;13.98;67.50
77333;BME280;66408;51.326;12.070;2023-05-14T02:09:58;101024.09;;;13.95;67.60
77333;BME280;66408;51.326;12.070;2023-05-14T02:12:24;101027.31;;;13.97;68.13
77333;BME280;66408;51.326;12.070;2023-05-14T02:14:51;101023.56;;;13.93;67.92
77333;BME280;66408;51.326;12.070;2023-05-14T02:17:18;101021.16;;;13.91;68.29
77333;BME280;66408;51.326;12.070;2023-05-14T02:19:45;101014.66;;;13.87;68.17
77333;BME280;66408;51.326;12.070;2023-05-14T02:22:12;101016.59;;;13.87;68.20
77333;BME280;66408;51.326;12.070;2023-05-14T02:24:39;101014.59;;;13.79;68.58
77333;BME280;66408;51.326;12.070;2023-05-14T02:27:06;101017.94;;;13.76;68.63
77333;BME280;66408;51.326;12.070;2023-05-14T02:29:33;101016.31;;;13.75;68.73
77333;BME280;66408;51.326;12.070;2023-05-14T02:31:59;101011.00;;;13.70;68.61
77333;BME280;66408;51.326;12.070;2023-05-14T02:34:26;101014.63;;;13.65;68.78
77333;BME280;66408;51.326;12.070;2023-05-14T02:36:52;101016.06;;;13.62;69.14
77333;BME280;66408;51.326;12.070;2023-05-14T02:39:19;101016.69;;;13.59;68.98
77333;BME280;66408;51.326;12.070;2023-05-14T02:41:48;101015.88;;;13.59;69.14
77333;BME280;66408;51.326;12.070;2023-05-14T02:44:14;101006.06;;;13.58;69.15
77333;BME280;66408;51.326;12.070;2023-05-14T02:46:41;101012.00;;;13.60;68.95
77333;BME280;66408;51.326;12.070;2023-05-14T02:49:08;101010.59;;;13.62;69.05
77333;BME280;66408;51.326;12.070;2023-05-14T02:51:35;101010.09;;;13.60;69.29
77333;BME280;66408;51.326;12.070;2023-05-14T02:54:02;101000.97;;;13.65;69.25
77333;BME280;66408;51.326;12.070;2023-05-14T02:56:28;101013.84;;;13.64;69.42
77333;BME280;66408;51.326;12.070;2023-05-14T02:58:55;101003.41;;;13.66;69.06
77333;BME280;66408;51.326;12.070;2023-05-14T03:01:22;101009.38;;;13.69;69.02
77333;BME280;66408;51.326;12.070;2023-05-14T03:03:49;101000.66;;;13.66;69.26
77333;BME280;66408;51.326;12.070;2023-05-14T03:06:20;101011.00;;;13.70;69.25
77333;BME280;66408;51.326;12.070;2023-05-14T03:09:01;101007.16;;;13.71;69.56
77333;BME280;66408;51.326;12.070;2023-05-14T03:11:30;101009.78;;;13.62;69.83
77333;BME280;66408;51.326;12.070;2023-05-14T03:13:58;101010.50;;;13.68;69.94
77333;BME280;66408;51.326;12.070;2023-05-14T03:16:29;101000.66;;;13.66;69.93
77333;BME280;66408;51.326;12.070;2023-05-14T03:18:58;101008.78;;;13.72;69.78
77333;BME280;66408;51.326;12.070;2023-05-14T03:21:28;101002.00;;;13.69;70.06
77333;BME280;66408;51.326;12.070;2023-05-14T03:23:54;101001.25;;;13.77;69.81
77333;BME280;66408;51.326;12.070;2023-05-14T03:26:25;101002.06;;;13.78;69.64
77333;BME280;66408;51.326;12.070;2023-05-14T03:28:51;101002.25;;;13.81;69.71
77333;BME280;66408;51.326;12.070;2023-05-14T03:31:18;100989.09;;;13.83;69.32
77333;BME280;66408;51.326;12.070;2023-05-14T03:33:45;100996.97;;;13.85;69.26
77333;BME280;66408;51.326;12.070;2023-05-14T03:36:12;100991.69;;;13.88;68.80
77333;BME280;66408;51.326;12.070;2023-05-14T03:38:38;100993.25;;;13.81;68.74
77333;BME280;66408;51.326;12.070;2023-05-14T03:41:05;100985.75;;;13.73;69.37
77333;BME280;66408;51.326;12.070;2023-05-14T03:43:31;100990.56;;;13.67;69.82
77333;BME280;66408;51.326;12.070;2023-05-14T03:45:58;101000.28;;;13.59;70.22
77333;BME280;66408;51.326;12.070;2023-05-14T03:48:25;100987.50;;;13.69;69.95
77333;BME280;66408;51.326;12.070;2023-05-14T03:50:51;100979.91;;;13.65;69.88
77333;BME280;66408;51.326;12.070;2023-05-14T03:53:18;100989.63;;;13.72;69.96
77333;BME280;66408;51.326;12.070;2023-05-14T03:55:45;100979.00;;;13.70;69.61
77333;BME280;66408;51.326;12.070;2023-05-14T03:58:11;100984.47;;;13.70;69.77
77333;BME280;66408;51.326;12.070;2023-05-14T04:00:41;100983.66;;;13.70;69.31
77333;BME280;66408;51.326;12.070;2023-05-14T04:03:07;100974.34;;;13.71;69.49
77333;BME280;66408;51.326;12.070;2023-05-14T04:05:36;100979.31;;;13.69;69.46
77333;BME280;66408;51.326;12.070;2023-05-14T04:08:03;100977.56;;;13.73;69.27
77333;BME280;66408;51.326;12.070;2023-05-14T04:10:30;100982.31;;;13.81;69.42
77333;BME280;66408;51.326;12.070;2023-05-14T04:12:57;100975.28;;;13.88;69.17
77333;BME280;66408;51.326;12.070;2023-05-14T04:15:24;100974.16;;;13.89;68.93
77333;BME280;66408;51.326;12.070;2023-05-14T04:17:50;100981.44;;;13.94;68.92
77333;BME280;66408;51.326;12.070;2023-05-14T04:20:17;100978.56;;;13.99;67.82
77333;BME280;66408;51.326;12.070;2023-05-14T04:22:43;100973.91;;;13.99;67.01
77333;BME280;66408;51.326;12.070;2023-05-14T04:25:11;100971.19;;;13.99;67.90
77333;BME280;66408;51.326;12.070;2023-05-14T04:27:38;100975.44;;;14.06;67.26
77333;BME280;66408;51.326;12.070;2023-05-14T04:30:05;100975.44;;;14.06;67.52
77333;BME280;66408;51.326;12.070;2023-05-14T04:32:33;100980.41;;;14.03;67.71
77333;BME280;66408;51.326;12.070;2023-05-14T04:35:00;100974.22;;;13.98;67.72
77333;BME280;66408;51.326;12.070;2023-05-14T04:37:26;100967.28;;;13.92;67.99
77333;BME280;66408;51.326;12.070;2023-05-14T04:39:53;100976.97;;;13.98;68.36
77333;BME280;66408;51.326;12.070;2023-05-14T04:42:21;100969.56;;;13.98;68.53
77333;BME280;66408;51.326;12.070;2023-05-14T04:44:47;100971.38;;;14.03;68.68
77333;BME280;66408;51.326;12.070;2023-05-14T04:47:14;100975.84;;;13.99;68.33
77333;BME280;66408;51.326;12.070;2023-05-14T04:49:40;100970.06;;;14.00;67.87
77333;BME280;66408;51.326;12.070;2023-05-14T04:52:08;100975.72;;;14.04;68.32
77333;BME280;66408;51.326;12.070;2023-05-14T04:54:34;100976.84;;;14.03;68.38
77333;BME280;66408;51.326;12.070;2023-05-14T04:57:01;100976.84;;;14.03;67.77
77333;BME280;66408;51.326;12.070;2023-05-14T04:59:29;100973.09;;;13.99;68.14
77333;BME280;66408;51.326;12.070;2023-05-14T05:01:56;100975.84;;;13.99;67.63
77333;BME280;66408;51.326;12.070;2023-05-14T05:04:23;100973.81;;;14.05;68.42
77333;BME280;66408;51.326;12.070;2023-05-14T05:06:50;100976.72;;;14.08;68.00
77333;BME280;66408;51.326;12.070;2023-05-14T05:09:17;100976.09;;;14.11;68.12
77333;BME280;66408;51.326;12.070;2023-05-14T05:11:44;100974.34;;;14.15;67.64
77333;BME280;66408;51.326;12.070;2023-05-14T05:14:10;100970.06;;;14.23;67.40
77333;BME280;66408;51.326;12.070;2023-05-14T05:16:37;100972.38;;;14.29;67.61
77333;BME280;66408;51.326;12.070;2023-05-14T05:19:03;100972.66;;;14.28;66.04
77333;BME280;66408;51.326;12.070;2023-05-14T05:21:30;100969.66;;;14.38;65.98
77333;BME280;66408;51.326;12.070;2023-05-14T05:23:57;100963.31;;;14.43;65.97
77333;BME280;66408;51.326;12.070;2023-05-14T05:26:25;100967.81;;;14.47;65.41
77333;BME280;66408;51.326;12.070;2023-05-14T05:28:52;100971.84;;;14.50;65.42
77333;BME280;66408;51.326;12.070;2023-05-14T05:31:19;100966.69;;;14.48;64.77
77333;BME280;66408;51.326;12.070;2023-05-14T05:33:45;100963.22;;;14.56;64.63
77333;BME280;66408;51.326;12.070;2023-05-14T05:36:12;100961.13;;;14.62;64.96
77333;BME280;66408;51.326;12.070;2023-05-14T05:38:39;100961.50;;;14.69;64.41
77333;BME280;66408;51.326;12.070;2023-05-14T05:41:05;100955.25;;;14.77;65.01
77333;BME280;66408;51.326;12.070;2023-05-14T05:43:32;100966.22;;;14.86;64.87
77333;BME280;66408;51.326;12.070;2023-05-14T05:45:59;100962.06;;;14.97;65.62
77333;BME280;66408;51.326;12.070;2023-05-14T05:48:27;100971.75;;;15.03;64.84
77333;BME280;66408;51.326;12.070;2023-05-14T05:50:53;100964.38;;;15.12;63.63
77333;BME280;66408;51.326;12.070;2023-05-14T05:53:20;100962.31;;;15.18;63.50
77333;BME280;66408;51.326;12.070;2023-05-14T05:55:46;100968.09;;;15.25;63.22
77333;BME280;66408;51.326;12.070;2023-05-14T05:58:13;100957.16;;;15.33;63.41
77333;BME280;66408;51.326;12.070;2023-05-14T06:00:42;100968.47;;;15.49;63.67
77333;BME280;66408;51.326;12.070;2023-05-14T06:03:10;100955.94;;;15.65;62.45
77333;BME280;66408;51.326;12.070;2023-05-14T06:05:37;100962.53;;;15.73;61.16
77333;BME280;66408;51.326;12.070;2023-05-14T06:08:04;100954.31;;;15.90;61.22
77333;BME280;66408;51.326;12.070;2023-05-14T06:10:30;100962.22;;;16.00;61.00
77333;BME280;66408;51.326;12.070;2023-05-14T06:12:57;100948.19;;;16.02;60.19
77333;BME280;66408;51.326;12.070;2023-05-14T06:15:23;100962.06;;;15.97;59.71
77333;BME280;66408;51.326;12.070;2023-05-14T06:17:50;100964.50;;;15.90;58.89
77333;BME280;66408;51.326;12.070;2023-05-14T06:20:17;100967.69;;;15.83;59.51
77333;BME280;66408;51.326;12.070;2023-05-14T06:22:44;100963.84;;;15.93;59.03
77333;BME280;66408;51.326;12.070;2023-05-14T06:25:10;100961.59;;;15.95;58.89
77333;BME280;66408;51.326;12.070;2023-05-14T06:27:37;100964.31;;;16.12;59.09
77333;BME280;66408;51.326;12.070;2023-05-14T06:30:04;100965.09;;;16.30;58.77
77333;BME280;66408;51.326;12.070;2023-05-14T06:32:32;100962.47;;;16.33;58.73
77333;BME280;66408;51.326;12.070;2023-05-14T06:34:59;100949.47;;;16.60;58.51
77333;BME280;66408;51.326;12.070;2023-05-14T06:37:25;100954.25;;;16.88;57.52
77333;BME280;66408;51.326;12.070;2023-05-14T06:39:52;100943.28;;;17.09;56.66
77333;BME280;66408;51.326;12.070;2023-05-14T06:42:21;100949.25;;;17.41;55.94
77333;BME280;66408;51.326;12.070;2023-05-14T06:44:48;100947.25;;;17.71;55.22
77333;BME280;66408;51.326;12.070;2023-05-14T06:47:14;100940.00;;;17.87;54.29
77333;BME280;66408;51.326;12.070;2023-05-14T06:49:41;100934.44;;;18.41;53.86
77333;BME280;66408;51.326;12.070;2023-05-14T06:52:07;100938.44;;;18.55;52.60
77333;BME280;66408;51.326;12.070;2023-05-14T06:54:34;100933.78;;;18.80;51.54
77333;BME280;66408;51.326;12.070;2023-05-14T06:57:01;100926.31;;;19.05;50.80
77333;BME280;66408;51.326;12.070;2023-05-14T06:59:28;100924.28;;;18.78;50.61
77333;BME280;66408;51.326;12.070;2023-05-14T07:01:55;100925.97;;;19.19;50.15
77333;BME280;66408;51.326;12.070;2023-05-14T07:04:21;100921.50;;;19.26;49.16
77333;BME280;66408;51.326;12.070;2023-05-14T07:06:48;100919.16;;;19.41;48.50
77333;BME280;66408;51.326;12.070;2023-05-14T07:09:15;100922.13;;;19.60;48.05
77333;BME280;66408;51.326;12.070;2023-05-14T07:11:41;100913.84;;;19.88;46.73
77333;BME280;66408;51.326;12.070;2023-05-14T07:14:08;100917.16;;;19.65;47.54
77333;BME280;66408;51.326;12.070;2023-05-14T07:16:35;100918.91;;;19.86;48.17
77333;BME280;66408;51.326;12.070;2023-05-14T07:19:02;100904.16;;;20.37;46.74
77333;BME280;66408;51.326;12.070;2023-05-14T07:21:28;100908.16;;;20.87;45.79
77333;BME280;66408;51.326;12.070;2023-05-14T07:23:55;100914.44;;;21.03;46.10
77333;BME280;66408;51.326;12.070;2023-05-14T07:26:22;100910.31;;;21.29;44.76
77333;BME280;66408;51.326;12.070;2023-05-14T07:28:49;100913.97;;;21.33;44.62
77333;BME280;66408;51.326;12.070;2023-05-14T07:31:16;100914.41;;;21.35;44.29
77333;BME280;66408;51.326;12.070;2023-05-14T07:33:43;100909.34;;;21.05;44.28
77333;BME280;66408;51.326;12.070;2023-05-14T07:36:09;100905.66;;;21.52;42.32
77333;BME280;66408;51.326;12.070;2023-05-14T07:38:36;100900.53;;;21.50;42.94
77333;BME280;66408;51.326;12.070;2023-05-14T07:41:03;100900.06;;;21.68;42.01
77333;BME280;66408;51.326;12.070;2023-05-14T07:43:30;100897.50;;;21.98;41.67
77333;BME280;66408;51.326;12.070;2023-05-14T07:45:56;100902.19;;;22.13;41.74
77333;BME280;66408;51.326;12.070;2023-05-14T07:48:25;100894.28;;;22.15;41.63
77333;BME280;66408;51.326;12.070;2023-05-14T07:50:52;100892.19;;;22.31;41.64
77333;BME280;66408;51.326;12.070;2023-05-14T07:53:19;100885.91;;;22.34;42.03
77333;BME280;66408;51.326;12.070;2023-05-14T07:55:47;100881.28;;;22.42;41.69
77333;BME280;66408;51.326;12.070;2023-05-14T07:58:14;100872.34;;;22.75;41.27
77333;BME280;66408;51.326;12.070;2023-05-14T08:00:41;100875.75;;;22.91;40.97
77333;BME280;66408;51.326;12.070;2023-05-14T08:03:08;100868.50;;;23.09;40.85
77333;BME280;66408;51.326;12.070;2023-05-14T08:05:35;100877.22;;;22.81;40.59
77333;BME280;66408;51.326;12.070;2023-05-14T08:08:02;100878.84;;;22.37;40.37
77333;BME280;66408;51.326;12.070;2023-05-14T08:10:28;100880.31;;;22.31;40.80
77333;BME280;66408;51.326;12.070;2023-05-14T08:12:55;100876.84;;;22.14;41.01
77333;BME280;66408;51.326;12.070;2023-05-14T08:15:22;100874.63;;;21.81;41.40
77333;BME280;66408;51.326;12.070;2023-05-14T08:17:57;100877.78;;;22.22;39.47
77333;BME280;66408;51.326;12.070;2023-05-14T08:20:29;100867.88;;;22.44;40.21
77333;BME280;66408;51.326;12.070;2023-05-14T08:22:56;100869.84;;;22.43;41.16
77333;BME280;66408;51.326;12.070;2023-05-14T08:25:25;100863.16;;;22.71;41.45
77333;BME280;66408;51.326;12.070;2023-05-14T08:27:52;100856.25;;;23.10;40.82
77333;BME280;66408;51.326;12.070;2023-05-14T08:30:19;100855.53;;;23.17;40.22
77333;BME280;66408;51.326;12.070;2023-05-14T08:32:47;100861.53;;;23.52;39.06
77333;BME280;66408;51.326;12.070;2023-05-14T08:35:14;100851.09;;;23.42;38.82
77333;BME280;66408;51.326;12.070;2023-05-14T08:37:41;100854.28;;;23.44;37.92
77333;BME280;66408;51.326;12.070;2023-05-14T08:40:08;100846.16;;;23.58;38.41
77333;BME280;66408;51.326;12.070;2023-05-14T08:42:37;100849.72;;;23.29;38.51
77333;BME280;66408;51.326;12.070;2023-05-14T08:45:11;100845.72;;;23.26;38.09
77333;BME280;66408;51.326;12.070;2023-05-14T08:47:39;100844.00;;;22.85;38.25
77333;BME280;66408;51.326;12.070;2023-05-14T08:50:06;100839.84;;;22.75;39.23
77333;BME280;66408;51.326;12.070;2023-05-14T08:52:34;100837.31;;;23.19;37.81
77333;BME280;66408;51.326;12.070;2023-05-14T08:55:04;100833.78;;;22.92;39.66
77333;BME280;66408;51.326;12.070;2023-05-14T08:57:32;100826.41;;;23.34;39.05
77333;BME280;66408;51.326;12.070;2023-05-14T09:00:01;100832.22;;;23.55;37.10
77333;BME280;66408;51.326;12.070;2023-05-14T09:02:32;100827.53;;;23.96;38.16
77333;BME280;66408;51.326;12.070;2023-05-14T09:05:02;100829.59;;;24.06;37.05
77333;BME280;66408;51.326;12.070;2023-05-14T09:07:29;100830.47;;;24.17;37.23
77333;BME280;66408;51.326;12.070;2023-05-14T09:09:56;100826.19;;;24.75;35.62
77333;BME280;66408;51.326;12.070;2023-05-14T09:12:24;100815.75;;;25.26;33.95
77333;BME280;66408;51.326;12.070;2023-05-14T09:14:51;100824.75;;;26.06;34.75
77333;BME280;66408;51.326;12.070;2023-05-14T09:17:18;100817.59;;;26.34;33.91
77333;BME280;66408;51.326;12.070;2023-05-14T09:19:45;100812.44;;;26.32;34.34
77333;BME280;66408;51.326;12.070;2023-05-14T09:22:16;100815.53;;;25.70;34.96
77333;BME280;66408;51.326;12.070;2023-05-14T09:24:43;100813.91;;;24.86;35.43
77333;BME280;66408;51.326;12.070;2023-05-14T09:27:19;100810.72;;;24.22;36.56
77333;BME280;66408;51.326;12.070;2023-05-14T09:29:47;100821.50;;;23.53;38.63
77333;BME280;66408;51.326;12.070;2023-05-14T09:32:13;100821.31;;;22.79;39.31
77333;BME280;66408;51.326;12.070;2023-05-14T09:34:40;100821.50;;;22.67;39.37
77333;BME280;66408;51.326;12.070;2023-05-14T09:37:08;100819.44;;;22.38;40.98
77333;BME280;66408;51.326;12.070;2023-05-14T09:39:37;100824.59;;;22.13;41.64
77333;BME280;66408;51.326;12.070;2023-05-14T09:42:04;100814.38;;;22.17;40.90
77333;BME280;66408;51.326;12.070;2023-05-14T09:44:32;100810.88;;;22.20;41.44
77333;BME280;66408;51.326;12.070;2023-05-14T09:47:01;100803.97;;;22.60;39.80
77333;BME280;66408;51.326;12.070;2023-05-14T09:49:28;100798.09;;;22.91;38.68
77333;BME280;66408;51.326;12.070;2023-05-14T09:51:54;100795.38;;;23.98;38.29
77333;BME280;66408;51.326;12.070;2023-05-14T09:54:23;100783.50;;;25.15;36.22
77333;BME280;66408;51.326;12.070;2023-05-14T09:56:52;100790.09;;;26.04;34.45
77333;BME280;66408;51.326;12.070;2023-05-14T09:59:21;100774.44;;;26.88;32.30
77333;BME280;66408;51.326;12.070;2023-05-14T10:01:48;100774.56;;;26.35;33.51
77333;BME280;66408;51.326;12.070;2023-05-14T10:04:16;100778.81;;;25.44;33.31
77333;BME280;66408;51.326;12.070;2023-05-14T10:06:45;100775.34;;;24.78;34.78
77333;BME280;66408;51.326;12.070;2023-05-14T10:09:15;100776.78;;;24.54;35.33
77333;BME280;66408;51.326;12.070;2023-05-14T10:11:47;100775.16;;;24.49;36.22
77333;BME280;66408;51.326;12.070;2023-05-14T10:14:25;100768.72;;;25.03;34.21
77333;BME280;66408;51.326;12.070;2023-05-14T10:16:57;100764.13;;;24.60;35.92
77333;BME280;66408;51.326;12.070;2023-05-14T10:19:26;100767.69;;;23.65;35.91
77333;BME280;66408;51.326;12.070;2023-05-14T10:22:04;100771.53;;;22.64;37.41
77333;BME280;66408;51.326;12.070;2023-05-14T10:24:31;100773.19;;;22.15;38.91
77333;BME280;66408;51.326;12.070;2023-05-14T10:27:01;100765.56;;;21.86;39.15
77333;BME280;66408;51.326;12.070;2023-05-14T10:29:35;100765.91;;;21.62;40.50
77333;BME280;66408;51.326;12.070;2023-05-14T10:32:04;100768.50;;;21.32;41.14
77333;BME280;66408;51.326;12.070;2023-05-14T10:34:39;100768.16;;;21.17;42.47
77333;BME280;66408;51.326;12.070;2023-05-14T10:37:07;100771.41;;;21.00;43.11
77333;BME280;66408;51.326;12.070;2023-05-14T10:42:21;100759.81;;;20.75;43.26
77333;BME280;66408;51.326;12.070;2023-05-14T10:44:57;100754.13;;;20.88;43.53
77333;BME280;66408;51.326;12.070;2023-05-14T10:47:25;100750.03;;;20.82;43.11
77333;BME280;66408;51.326;12.070;2023-05-14T10:49:57;100752.41;;;20.99;42.93
77333;BME280;66408;51.326;12.070;2023-05-14T10:52:25;100746.78;;;20.95;43.32
77333;BME280;66408;51.326;12.070;2023-05-14T10:55:01;100745.91;;;20.91;42.93
77333;BME280;66408;51.326;12.070;2023-05-14T10:57:30;100742.78;;;20.93;43.36
77333;BME280;66408;51.326;12.070;2023-05-14T10:59:59;100740.00;;;20.93;42.78
77333;BME280;66408;51.326;12.070;2023-05-14T11:02:36;100737.69;;;20.95;43.10
77333;BME280;66408;51.326;12.070;2023-05-14T11:05:17;100729.47;;;20.98;43.38
77333;BME280;66408;51.326;12.070;2023-05-14T11:07:48;100729.25;;;21.07;43.22
77333;BME280;66408;51.326;12.070;2023-05-14T11:10:17;100737.75;;;21.17;44.36
77333;BME280;66408;51.326;12.070;2023-05-14T11:12:46;100725.34;;;20.89;43.68
77333;BME280;66408;51.326;12.070;2023-05-14T11:15:15;100728.81;;;21.05;44.79
77333;BME280;66408;51.326;12.070;2023-05-14T11:17:43;100732.25;;;20.98;43.54
77333;BME280;66408;51.326;12.070;2023-05-14T11:20:10;100723.34;;;21.08;44.45
77333;BME280;66408;51.326;12.070;2023-05-14T11:22:40;100720.81;;;21.19;44.56
77333;BME280;66408;51.326;12.070;2023-05-14T11:25:08;100716.13;;;21.04;43.25
77333;BME280;66408;51.326;12.070;2023-05-14T11:27:39;100717.16;;;21.15;42.56
77333;BME280;66408;51.326;12.070;2023-05-14T11:30:17;100709.16;;;21.10;42.70
77333;BME280;66408;51.326;12.070;2023-05-14T11:32:46;100715.97;;;21.16;42.12
77333;BME280;66408;51.326;12.070;2023-05-14T11:35:13;100711.56;;;21.31;42.86
77333;BME280;66408;51.326;12.070;2023-05-14T11:37:41;100709.00;;;21.41;42.59
77333;BME280;66408;51.326;12.070;2023-05-14T11:40:14;100710.41;;;21.55;42.45
77333;BME280;66408;51.326;12.070;2023-05-14T11:42:42;100704.75;;;21.47;42.00
77333;BME280;66408;51.326;12.070;2023-05-14T11:45:12;100702.78;;;21.48;42.60
77333;BME280;66408;51.326;12.070;2023-05-14T11:47:40;100699.16;;;21.44;42.68
77333;BME280;66408;51.326;12.070;2023-05-14T11:50:08;100695.03;;;21.34;42.32
77333;BME280;66408;51.326;12.070;2023-05-14T11:52:39;100696.75;;;21.42;42.55
77333;BME280;66408;51.326;12.070;2023-05-14T11:55:12;100693.69;;;21.47;42.44
77333;BME280;66408;51.326;12.070;2023-05-14T11:57:40;100694.84;;;21.46;42.38
77333;BME280;66408;51.326;12.070;2023-05-14T12:00:09;100685.22;;;21.60;42.89
77333;BME280;66408;51.326;12.070;2023-05-14T12:02:41;100691.59;;;21.64;41.48
77333;BME280;66408;51.326;12.070;2023-05-14T12:05:11;100691.53;;;21.60;40.92
77333;BME280;66408;51.326;12.070;2023-05-14T12:07:38;100684.88;;;21.65;39.69
77333;BME280;66408;51.326;12.070;2023-05-14T12:10:05;100679.78;;;21.67;40.20
77333;BME280;66408;51.326;12.070;2023-05-14T12:12:35;100681.63;;;21.82;41.15
77333;BME280;66408;51.326;12.070;2023-05-14T12:15:11;100678.09;;;22.08;40.31
77333;BME280;66408;51.326;12.070;2023-05-14T12:17:39;100676.38;;;22.26;39.01
77333;BME280;66408;51.326;12.070;2023-05-14T12:20:08;100673.56;;;22.23;39.57
77333;BME280;66408;51.326;12.070;2023-05-14T12:22:36;100677.38;;;22.11;39.73
77333;BME280;66408;51.326;12.070;2023-05-14T12:25:03;100678.03;;;22.04;39.04
77333;BME280;66408;51.326;12.070;2023-05-14T12:27:29;100678.41;;;22.03;38.68
77333;BME280;66408;51.326;12.070;2023-05-14T12:29:58;100671.34;;;21.82;38.92
77333;BME280;66408;51.326;12.070;2023-05-14T12:32:45;100670.47;;;21.78;39.44
77333;BME280;66408;51.326;12.070;2023-05-14T12:35:12;100668.44;;;21.98;40.71
77333;BME280;66408;51.326;12.070;2023-05-14T12:37:38;100668.44;;;21.98;40.89
77333;BME280;66408;51.326;12.070;2023-05-14T12:40:05;100672.34;;;22.20;40.58
77333;BME280;66408;51.326;12.070;2023-05-14T12:42:35;100668.75;;;22.46;39.65
77333;BME280;66408;51.326;12.070;2023-05-14T12:45:02;100673.00;;;22.70;39.21
77333;BME280;66408;51.326;12.070;2023-05-14T12:47:33;100653.31;;;23.12;38.14
77333;BME280;66408;51.326;12.070;2023-05-14T12:50:00;100654.34;;;23.37;38.55